Data for 03/23/2014

Time Sea-Level Adjusted Pressure Absolute Pressure Temperature Relative Humidity Dew Point   
(mb) (inHg) (mb) (inHg) (C) (F) (%) (C) (F)
00:05 1019 30.09 848 25.04 -4.9 23.2 64 -10.7 12.8
00:10 1019 30.09 848 25.04 -4.9 23.1 64 -10.6 12.8
00:15 1019 30.09 848 25.04 -4.9 23.1 64 -10.8 12.6
00:20 1019 30.09 848 25.04 -4.9 23.1 64 -10.7 12.8
00:25 1019 30.09 848 25.04 -5 23 64 -10.7 12.7
00:30 1019 30.09 848 25.04 -5 23 64 -10.8 12.6
00:35 1019 30.09 848 25.04 -4.9 23.1 64 -10.8 12.6
00:40 1019 30.09 848 25.04 -4.9 23.2 63 -10.9 12.3
00:45 1019 30.09 848 25.04 -4.8 23.4 63 -10.9 12.4
00:50 1019 30.09 848 25.04 -4.7 23.5 63 -10.8 12.5
00:55 1018 30.06 848 25.04 -4.7 23.5 62 -10.9 12.4
01:00 1018 30.06 848 25.04 -4.7 23.5 62 -11 12.2
01:05 1018 30.06 848 25.04 -4.8 23.4 63 -10.9 12.5
01:10 1018 30.06 848 25.04 -5 23 63 -10.9 12.3
01:15 1018 30.06 848 25.04 -5.1 22.9 64 -10.9 12.4
01:20 1018 30.06 848 25.04 -5 23 63 -11 12.3
01:25 1018 30.06 848 25.04 -4.9 23.2 62 -11.1 12.1
01:30 1018 30.06 848 25.04 -4.8 23.4 62 -10.9 12.3
01:35 1018 30.06 848 25.04 -4.8 23.3 62 -11 12.2
01:40 1018 30.06 847 25.01 -4.8 23.4 62 -11 12.3
01:45 1018 30.06 848 25.04 -4.7 23.5 62 -11 12.3
01:50 1018 30.06 847 25.01 -4.8 23.4 62 -10.9 12.4
01:55 1018 30.06 847 25.01 -4.8 23.3 64 -10.7 12.7
02:00 1018 30.06 847 25.01 -4.9 23.2 64 -10.7 12.7
02:05 1018 30.06 847 25.01 -5 23 64 -10.8 12.6
02:10 1018 30.06 847 25.01 -5 22.9 64 -10.8 12.6
02:15 1018 30.06 847 25.01 -5.1 22.9 64 -10.8 12.5
02:20 1018 30.06 847 25.01 -5.1 22.9 65 -10.7 12.7
02:25 1018 30.06 847 25.01 -5.1 22.9 65 -10.7 12.7
02:30 1018 30.06 847 25.01 -5.2 22.7 65 -10.7 12.8
02:35 1018 30.06 847 25.01 -5.2 22.7 64 -10.9 12.4
02:40 1018 30.06 847 25.01 -5.2 22.7 64 -10.9 12.4
02:45 1018 30.06 847 25.01 -5.1 22.8 64 -10.9 12.4
02:50 1018 30.06 847 25.01 -5.1 22.8 63 -11.1 12.1
02:55 1018 30.06 847 25.01 -5.1 22.9 63 -11.1 12.1
03:00 1018 30.06 847 25.01 -5.1 22.8 63 -11 12.1
03:05 1018 30.06 847 25.01 -5.1 22.8 64 -10.9 12.4
03:10 1018 30.06 847 25.01 -5.1 22.8 64 -10.9 12.3
03:15 1018 30.06 847 25.01 -5.2 22.7 64 -10.9 12.4
03:20 1017 30.03 847 25.01 -5.1 22.8 64 -10.9 12.3
03:25 1017 30.03 847 25.01 -5.1 22.9 62 -11.2 11.8
03:30 1017 30.03 847 25.01 -4.9 23.1 61 -11.3 11.7
03:35 1017 30.03 847 25.01 -4.9 23.2 62 -11 12.2
03:40 1017 30.03 847 25.01 -4.8 23.3 61 -11.2 11.9
03:45 1017 30.03 847 25.01 -4.8 23.4 62 -11 12.1
03:50 1017 30.03 847 25.01 -4.8 23.3 63 -10.8 12.5
03:55 1017 30.03 847 25.01 -4.9 23.2 63 -10.8 12.6
04:00 1017 30.03 846 24.98 -4.9 23.2 62 -11.2 11.9
04:05 1017 30.03 846 24.98 -4.8 23.4 62 -11 12.2
04:10 1017 30.03 846 24.98 -4.7 23.6 60 -11.4 11.5
04:15 1017 30.03 846 24.98 -4.6 23.7 59 -11.5 11.3
04:20 1017 30.03 846 24.98 -4.5 23.9 60 -11.2 11.9
04:25 1017 30.03 846 24.98 -4.4 24 61 -10.9 12.4
04:30 1017 30.03 846 24.98 -4.7 23.5 62 -10.9 12.4
04:35 1017 30.03 846 24.98 -5 23 64 -10.7 12.7
04:40 1017 30.03 846 24.98 -5 22.9 62 -11.3 11.6
04:45 1017 30.03 846 24.98 -4.6 23.6 57 -11.9 10.7
04:50 1017 30.03 846 24.98 -4.3 24.3 58 -11.3 11.6
04:55 1017 30.03 846 24.98 -4.2 24.4 60 -11 12.3
05:00 1017 30.03 846 24.98 -4.3 24.3 62 -10.6 13
05:05 1017 30.03 846 24.98 -4.3 24.2 63 -10.4 13.3
05:10 1017 30.03 846 24.98 -4.4 24.1 63 -10.4 13.3
05:15 1017 30.03 846 24.98 -4.3 24.3 62 -10.4 13.3
05:20 1017 30.03 846 24.98 -4 24.7 62 -10.3 13.4
05:25 1017 30.03 846 24.98 -3.9 25 59 -10.7 12.8
05:30 1017 30.03 846 24.98 -3.8 25.2 58 -10.8 12.5
05:35 1017 30.03 847 25.01 -3.7 25.4 59 -10.6 12.9
05:40 1017 30.03 847 25.01 -3.7 25.3 60 -10.5 13.1
05:45 1017 30.03 847 25.01 -3.7 25.4 61 -10.2 13.7
05:50 1017 30.03 847 25.01 -3.8 25.1 63 -9.8 14.4
05:55 1017 30.03 847 25.01 -3.9 25 64 -9.7 14.5
06:00 1017 30.03 847 25.01 -4 24.9 65 -9.7 14.6
06:05 1017 30.03 847 25.01 -4 24.8 62 -10.3 13.5
06:10 1017 30.03 847 25.01 -3.8 25.1 61 -10.4 13.3
06:15 1017 30.03 847 25.01 -3.7 25.3 65 -9.5 15
06:20 1017 30.03 847 25.01 -4 24.9 65 -9.6 14.7
06:25 1017 30.03 847 25.01 -4 24.7 64 -9.8 14.3
06:30 1017 30.03 847 25.01 -4 24.9 62 -10.1 13.7
06:35 1017 30.03 847 25.01 -3.8 25.1 61 -10.3 13.5
06:40 1017 30.03 847 25.01 -3.8 25.2 64 -9.7 14.6
06:45 1017 30.03 846 24.98 -3.6 25.5 54 -11.7 10.9
06:50 1017 30.03 847 25.01 -3.3 26.1 52 -11.7 10.9
06:55 1017 30.03 847 25.01 -3.2 26.3 54 -11.2 11.8
07:00 1017 30.03 846 24.98 -3.2 26.3 52 -11.7 11
07:05 1017 30.03 846 24.98 -3.2 26.2 58 -10.4 13.2
07:10 1017 30.03 846 24.98 -3.2 26.3 59 -10 13.9
07:15 1017 30.03 847 25.01 -3 26.6 54 -11.1 12
07:20 1017 30.03 847 25.01 -2.6 27.3 56 -10.2 13.6
07:25 1017 30.03 847 25.01 -2.5 27.5 55 -10.3 13.5
07:30 1017 30.03 847 25.01 -2.4 27.7 56 -10 14
07:35 1017 30.03 847 25.01 -2.4 27.7 54 -10.6 12.9
07:40 1017 30.03 847 25.01 -2 28.4 48 -11.7 10.9
07:45 1017 30.03 846 24.98 -1.5 29.3 49 -11 12.3
07:50 1017 30.03 847 25.01 -1.4 29.5 48 -11 12.2
07:55 1017 30.03 847 25.01 -1.3 29.7 48 -11.1 12.1
08:00 1017 30.03 847 25.01 -1.2 29.9 48 -10.9 12.3
08:05 1017 30.03 847 25.01 -1.2 29.8 49 -10.6 12.9
08:10 1017 30.03 847 25.01 -1.3 29.7 51 -10.2 13.6
08:15 1017 30.03 847 25.01 -1.3 29.7 50 -10.5 13.2
08:20 1017 30.03 847 25.01 -1.3 29.6 49 -10.7 12.8
08:25 1018 30.06 847 25.01 -1.3 29.7 49 -10.7 12.7
08:30 1018 30.06 847 25.01 -1.3 29.7 50 -10.4 13.2
08:35 1018 30.06 847 25.01 -1.1 30 49 -10.6 13
08:40 1018 30.06 847 25.01 -0.9 30.4 49 -10.4 13.3
08:45 1018 30.06 847 25.01 -0.7 30.7 49 -10.2 13.6
08:50 1018 30.06 847 25.01 -0.6 30.9 49 -10.1 13.8
08:55 1018 30.06 847 25.01 -0.7 30.7 54 -9 15.8
09:00 1018 30.06 847 25.01 -1.4 29.5 61 -7.9 17.9
09:05 1018 30.06 848 25.04 -1.7 28.9 64 -7.7 18.2
09:10 1018 30.06 848 25.04 -1.7 28.9 63 -7.8 17.9
09:15 1019 30.09 848 25.04 -1.5 29.3 62 -7.9 17.7
09:20 1019 30.09 848 25.04 -1.5 29.3 63 -7.6 18.2
09:25 1019 30.09 848 25.04 -1.3 29.6 62 -7.7 18.1
09:30 1019 30.09 848 25.04 -1.1 30 61 -7.8 18
09:35 1019 30.09 848 25.04 -1.2 29.8 64 -7.1 19.2
09:40 1019 30.09 848 25.04 -1.4 29.5 62 -7.6 18.3
09:45 1019 30.09 848 25.04 -1.3 29.7 62 -7.7 18.2
09:50 1019 30.09 849 25.07 -1.4 29.4 62 -7.8 17.9
09:55 1019 30.09 849 25.07 -1.8 28.8 61 -8.4 16.9
10:00 1020 30.12 849 25.07 -1.6 29 59 -8.7 16.3
10:05 1020 30.12 849 25.07 -1.3 29.7 58 -8.6 16.5
10:10 1020 30.12 849 25.07 -1.4 29.5 57 -8.8 16.2
10:15 1020 30.12 849 25.07 -1 30.2 56 -8.8 16.2
10:20 1020 30.12 849 25.07 -0.9 30.4 56 -8.6 16.5
10:25 1020 30.12 849 25.07 -0.9 30.4 56 -8.7 16.3
10:30 1020 30.12 849 25.07 -0.6 31 55 -8.5 16.7
10:35 1020 30.12 849 25.07 -0.2 31.6 54 -8.5 16.7
10:40 1020 30.12 849 25.07 0.1 32.3 53 -8.2 17.2
10:45 1020 30.12 849 25.07 0.4 32.7 51 -8.5 16.6
10:50 1020 30.12 849 25.07 0.5 32.8 54 -7.9 17.9
10:55 1020 30.12 849 25.07 -0.3 31.5 55 -8.3 17.1
11:00 1020 30.12 849 25.07 -0.4 31.3 53 -8.8 16.2
11:05 1020 30.12 849 25.07 -0.1 31.7 52 -8.9 16
11:10 1020 30.12 849 25.07 0 32 51 -9 15.8
11:15 1020 30.12 849 25.07 0.3 32.5 51 -8.8 16.2
11:20 1020 30.12 849 25.07 0.3 32.5 51 -8.8 16.2
11:25 1020 30.12 849 25.07 0.3 32.5 49 -9.3 15.2
11:30 1020 30.12 849 25.07 0.4 32.8 48 -9.2 15.4
11:35 1020 30.12 849 25.07 0.6 33 47 -9.4 15
11:40 1020 30.12 849 25.07 0.7 33.2 48 -9 15.8
11:45 1020 30.12 849 25.07 0.8 33.4 48 -8.9 15.9
11:50 1020 30.12 849 25.07 1 33.8 48 -8.8 16.1
11:55 1020 30.12 849 25.07 1.1 34 50 -8.2 17.3
12:00 1020 30.12 849 25.07 1.8 35.3 47 -8.2 17.3
12:05 1020 30.12 849 25.07 1.8 35.3 50 -7.5 18.5
12:10 1020 30.12 849 25.07 2.1 35.8 47 -8 17.6
12:15 1020 30.12 849 25.07 2.7 36.9 46 -7.8 17.9
12:20 1020 30.12 849 25.07 2.1 35.8 47 -7.9 17.7
12:25 1020 30.12 849 25.07 1.4 34.6 50 -8 17.7
12:30 1020 30.12 849 25.07 1.4 34.6 49 -8 17.5
12:35 1020 30.12 849 25.07 1.6 34.9 48 -8.1 17.4
12:40 1020 30.12 849 25.07 1.7 35.1 48 -8 17.5
12:45 1020 30.12 849 25.07 1.7 35 47 -8.6 16.5
12:50 1020 30.12 849 25.07 2.8 37.1 43 -8.5 16.6
12:55 1020 30.12 849 25.07 3.8 38.8 41 -8.2 17.2
13:00 1020 30.12 849 25.07 3.7 38.6 42 -8.2 17.3
13:05 1020 30.12 849 25.07 3.5 38.4 42 -8.3 17.1
13:10 1020 30.12 849 25.07 3.1 37.5 46 -7.5 18.5
13:15 1020 30.12 849 25.07 2.2 35.9 54 -6.1 21
13:20 1020 30.12 849 25.07 1.5 34.7 54 -6.8 19.7
13:25 1020 30.12 849 25.07 2.6 36.8 47 -7.6 18.3
13:30 1020 30.12 849 25.07 3.6 38.4 43 -7.9 17.8
13:35 1020 30.12 849 25.07 3.6 38.5 44 -7.4 18.6
13:40 1020 30.12 849 25.07 3.6 38.5 40 -8.6 16.4
13:45 1020 30.12 849 25.07 3.5 38.2 40 -8.8 16.2
13:50 1020 30.12 849 25.07 3.6 38.4 41 -8.5 16.7
13:55 1020 30.12 849 25.07 3.6 38.5 38 -9.4 15.1
14:00 1020 30.12 849 25.07 3.6 38.4 41 -8.6 16.5
14:05 1020 30.12 849 25.07 3.3 38 40 -9.2 15.5
14:10 1020 30.12 849 25.07 3.6 38.6 38 -9.3 15.2
14:15 1020 30.12 849 25.07 3.6 38.5 45 -7.2 19.1
14:20 1020 30.12 849 25.07 3.2 37.7 46 -7.2 19
14:25 1020 30.12 849 25.07 3.6 38.5 44 -7.5 18.5
14:30 1020 30.12 849 25.07 4 39.1 41 -8.2 17.2
14:35 1020 30.12 849 25.07 4 39.3 38 -9.1 15.5
14:40 1020 30.12 849 25.07 3.5 38.3 39 -9.3 15.3
14:45 1020 30.12 849 25.07 3.6 38.4 40 -8.9 16
14:50 1020 30.12 849 25.07 3.8 38.9 39 -9 15.8
14:55 1020 30.12 849 25.07 4 39.1 42 -7.9 17.7
15:00 1020 30.12 849 25.07 2.9 37.2 44 -8.1 17.5
15:05 1020 30.12 849 25.07 2.6 36.7 44 -8.3 17
15:10 1020 30.12 849 25.07 2.8 37.1 44 -8.4 16.9
15:15 1020 30.12 849 25.07 2.7 36.8 46 -7.7 18.1
15:20 1020 30.12 849 25.07 2.5 36.6 44 -8.6 16.5
15:25 1020 30.12 849 25.07 2.5 36.5 51 -6.6 20.1
15:30 1020 30.12 849 25.07 1.8 35.3 52 -6.9 19.5
15:35 1020 30.12 849 25.07 1.8 35.3 55 -6.3 20.6
15:40 1020 30.12 849 25.07 1.7 35.1 55 -6.4 20.5
15:45 1020 30.12 849 25.07 1.7 35 54 -6.7 19.9
15:50 1020 30.12 849 25.07 1.6 34.9 52 -7.1 19.3
15:55 1020 30.12 849 25.07 1.7 35.1 52 -7.1 19.2
16:00 1020 30.12 849 25.07 1.8 35.3 52 -7 19.4
16:05 1020 30.12 849 25.07 1.8 35.3 53 -6.8 19.8
16:10 1020 30.12 849 25.07 2 35.5 53 -6.7 19.9
16:15 1020 30.12 849 25.07 2.3 36.2 50 -7.2 19.1
16:20 1020 30.12 849 25.07 2.3 36.1 47 -7.8 17.9
16:25 1020 30.12 849 25.07 2.5 36.5 45 -8.2 17.2
16:30 1020 30.12 849 25.07 2.7 36.8 43 -8.7 16.3
16:35 1020 30.12 849 25.07 2.5 36.5 43 -8.8 16.2
16:40 1020 30.12 849 25.07 2.5 36.5 41 -9.5 14.8
16:45 1020 30.12 849 25.07 2.5 36.4 42 -9.1 15.6
16:50 1020 30.12 849 25.07 2.5 36.5 43 -8.9 15.9
16:55 1020 30.12 849 25.07 2.4 36.4 42 -9.2 15.5
17:00 1020 30.12 849 25.07 2.4 36.3 44 -8.6 16.4
17:05 1020 30.12 849 25.07 2.5 36.5 42 -9.2 15.4
17:10 1020 30.12 849 25.07 2.8 37 39 -9.7 14.5
17:15 1020 30.12 849 25.07 2.7 36.8 42 -8.8 16.1
17:20 1020 30.12 849 25.07 2.8 37 42 -9.1 15.7
17:25 1020 30.12 849 25.07 2.6 36.6 42 -9.1 15.6
17:30 1020 30.12 849 25.07 2.6 36.7 42 -9.1 15.6
17:35 1020 30.12 849 25.07 2.4 36.4 43 -8.9 16
17:40 1020 30.12 849 25.07 2.4 36.4 44 -8.7 16.4
17:45 1020 30.12 849 25.07 2.4 36.3 44 -8.6 16.5
17:50 1020 30.12 849 25.07 2.3 36.2 44 -8.8 16.1
17:55 1020 30.12 849 25.07 2.4 36.3 44 -8.8 16.2
18:00 1020 30.12 849 25.07 2.5 36.4 42 -9.2 15.4
18:05 1020 30.12 849 25.07 2.4 36.3 42 -9.4 15.1
18:10 1020 30.12 849 25.07 2.3 36.2 43 -9.1 15.6
18:15 1020 30.12 849 25.07 2.3 36.1 44 -8.8 16.2
18:20 1020 30.12 849 25.07 2.2 36 43 -9.1 15.7
18:25 1020 30.12 849 25.07 2.2 36 44 -8.8 16.2
18:30 1020 30.12 849 25.07 2.2 35.9 43 -9.2 15.4
18:35 1020 30.12 849 25.07 2.2 35.9 46 -8.3 17
18:40 1020 30.12 849 25.07 2 35.5 48 -8 17.7
18:45 1020 30.12 849 25.07 1.8 35.2 49 -7.9 17.8
18:50 1020 30.12 849 25.07 1.6 34.9 50 -7.7 18.2
18:55 1020 30.12 849 25.07 1.5 34.8 50 -7.8 18
19:00 1020 30.12 849 25.07 1.4 34.5 51 -7.6 18.3
19:05 1020 30.12 849 25.07 1.2 34.1 52 -7.6 18.3
19:10 1020 30.12 849 25.07 1.1 33.9 52 -7.6 18.2
19:15 1020 30.12 849 25.07 0.9 33.6 54 -7.4 18.7
19:20 1020 30.12 849 25.07 0.8 33.4 54 -7.4 18.6
19:25 1020 30.12 849 25.07 0.7 33.3 55 -7.3 18.8
19:30 1020 30.12 849 25.07 0.7 33.3 55 -7.4 18.7
19:35 1020 30.12 849 25.07 0.7 33.3 55 -7.3 18.8
19:40 1020 30.12 850 25.1 0.6 33.1 56 -7.1 19.1
19:45 1020 30.12 850 25.1 0.4 32.8 57 -7.2 19
19:50 1020 30.12 850 25.1 0.4 32.7 57 -7.1 19.2
19:55 1020 30.12 850 25.1 0.4 32.7 57 -7.1 19.3
20:00 1020 30.12 850 25.1 0.2 32.4 58 -7 19.3
20:05 1020 30.12 850 25.1 0 32 60 -6.9 19.5
20:10 1020 30.12 850 25.1 -0.1 31.7 61 -6.9 19.6
20:15 1020 30.12 850 25.1 -0.2 31.6 61 -6.9 19.6
20:20 1021 30.15 850 25.1 -0.3 31.5 61 -6.9 19.7
20:25 1021 30.15 850 25.1 -0.3 31.4 61 -7 19.5
20:30 1021 30.15 850 25.1 -0.3 31.4 62 -6.8 19.7
20:35 1021 30.15 850 25.1 -0.2 31.7 60 -7 19.3
20:40 1021 30.15 850 25.1 -0.1 31.8 60 -6.9 19.5
20:45 1021 30.15 850 25.1 -0.2 31.6 62 -6.6 20.1
20:50 1021 30.15 850 25.1 -0.4 31.3 59 -7.4 18.6
20:55 1021 30.15 850 25.1 -0.5 31.1 57 -8.1 17.5
21:00 1021 30.15 850 25.1 -0.4 31.2 55 -8.3 17
21:05 1021 30.15 850 25.1 -0.3 31.4 56 -8.1 17.4
21:10 1021 30.15 850 25.1 -0.4 31.2 57 -8 17.6
21:15 1021 30.15 850 25.1 -0.5 31 56 -8.3 17
21:20 1021 30.15 850 25.1 -0.5 31.1 57 -8 17.5
21:25 1021 30.15 850 25.1 -0.6 30.9 57 -8.1 17.5
21:30 1021 30.15 850 25.1 -0.7 30.8 58 -8 17.7
21:35 1021 30.15 850 25.1 -0.8 30.6 59 -7.8 17.9
21:40 1021 30.15 850 25.1 -0.9 30.5 59 -7.8 17.9
21:45 1021 30.15 850 25.1 -0.9 30.4 60 -7.6 18.3
21:50 1021 30.15 850 25.1 -0.9 30.3 61 -7.6 18.4
21:55 1021 30.15 850 25.1 -0.9 30.3 61 -7.5 18.5
22:00 1021 30.15 850 25.1 -1 30.2 62 -7.4 18.6
22:05 1021 30.15 850 25.1 -1 30.2 62 -7.4 18.7
22:10 1021 30.15 851 25.13 -1.1 30 63 -7.3 18.9
22:15 1021 30.15 851 25.13 -1.1 30 63 -7.2 19
22:20 1021 30.15 851 25.13 -1.2 29.8 64 -7.1 19.2
22:25 1021 30.15 851 25.13 -1.3 29.7 66 -6.9 19.5
22:30 1021 30.15 851 25.13 -1.4 29.5 66 -7 19.4
22:35 1022 30.18 851 25.13 -1.5 29.3 67 -6.9 19.5
22:40 1022 30.18 851 25.13 -1.6 29.1 67 -7 19.5
22:45 1022 30.18 851 25.13 -1.7 29 67 -7 19.5
22:50 1022 30.18 851 25.13 -1.6 29.1 67 -7 19.5
22:55 1022 30.18 851 25.13 -1.7 28.9 68 -6.9 19.6
23:00 1022 30.18 851 25.13 -1.8 28.8 68 -6.9 19.6
23:05 1022 30.18 851 25.13 -1.9 28.7 69 -6.9 19.6
23:10 1022 30.18 851 25.13 -1.9 28.6 69 -6.9 19.6
23:15 1022 30.18 851 25.13 -1.9 28.5 69 -6.9 19.6
23:20 1022 30.18 851 25.13 -2 28.5 69 -7 19.4
23:25 1022 30.18 851 25.13 -2 28.4 69 -6.9 19.5
23:30 1022 30.18 851 25.13 -2.1 28.3 69 -7 19.5
23:35 1022 30.18 851 25.13 -2.2 28 70 -6.9 19.5
23:40 1022 30.18 851 25.13 -2.3 27.8 70 -7 19.4
23:45 1022 30.18 851 25.13 -2.6 27.4 71 -7.1 19.2
23:50 1022 30.18 851 25.13 -2.7 27.1 71 -7.2 19
23:55 1022 30.18 851 25.13 -2.9 26.8 72 -7.3 18.9
24:00 1022 30.18 851 25.13 -3 26.6 71 -7.5 18.6